createdAt,value
2018-08-09T00:00:09.148Z,10.43
2018-08-09T00:02:37.651Z,8.57
2018-08-09T00:05:06.340Z,9.17
2018-08-09T00:07:34.837Z,8.60
2018-08-09T00:10:03.436Z,9.13
2018-08-09T00:12:32.017Z,8.90
2018-08-09T00:15:00.543Z,9.47
2018-08-09T00:17:29.078Z,8.60
2018-08-09T00:19:57.580Z,9.27
2018-08-09T00:22:26.102Z,8.77
2018-08-09T00:24:54.632Z,10.60
2018-08-09T00:27:23.120Z,8.93
2018-08-09T00:29:51.630Z,9.03
2018-08-09T00:32:20.194Z,8.90
2018-08-09T00:34:48.918Z,8.73
2018-08-09T00:37:17.406Z,7.93
2018-08-09T00:39:45.861Z,11.80
2018-08-09T00:42:14.329Z,9.97
2018-08-09T00:44:42.851Z,8.40
2018-08-09T00:47:11.483Z,10.73
2018-08-09T00:49:39.994Z,10.57
2018-08-09T00:52:08.502Z,10.03
2018-08-09T00:54:37.012Z,8.30
2018-08-09T00:57:05.712Z,13.67
2018-08-09T00:59:34.580Z,8.43
2018-08-09T01:02:03.109Z,9.77
2018-08-09T01:04:31.613Z,8.20
2018-08-09T01:07:00.094Z,8.73
2018-08-09T01:09:28.611Z,12.67
2018-08-09T01:11:57.145Z,8.90
2018-08-09T01:14:26.258Z,8.30
2018-08-09T01:16:54.762Z,9.27
2018-08-09T01:19:23.262Z,9.33
2018-08-09T01:21:51.767Z,8.67
2018-08-09T01:24:20.286Z,8.53
2018-08-09T01:26:48.768Z,7.63
2018-08-09T01:29:17.289Z,7.40
2018-08-09T01:31:45.807Z,10.00
2018-08-09T01:34:14.463Z,8.57
2018-08-09T01:36:43.010Z,9.40
2018-08-09T01:39:13.022Z,8.10
2018-08-09T01:41:52.755Z,8.43
2018-08-09T01:44:21.249Z,8.67
2018-08-09T01:46:49.742Z,7.93
2018-08-09T01:49:18.385Z,9.10
2018-08-09T01:51:46.994Z,9.43
2018-08-09T01:54:15.550Z,8.33
2018-08-09T01:56:44.061Z,8.47
2018-08-09T01:59:12.569Z,8.47
2018-08-09T02:01:41.078Z,7.47
2018-08-09T02:04:09.586Z,7.73
2018-08-09T02:06:38.128Z,8.30
2018-08-09T02:09:09.659Z,7.73
2018-08-09T02:11:38.139Z,8.30
2018-08-09T02:14:06.916Z,8.90
2018-08-09T02:16:35.585Z,8.80
2018-08-09T02:19:04.074Z,10.67
2018-08-09T02:21:32.590Z,9.27
2018-08-09T02:24:01.092Z,7.53
2018-08-09T02:26:29.632Z,8.43
2018-08-09T02:28:58.129Z,7.87
2018-08-09T02:31:26.693Z,9.27
2018-08-09T02:33:55.222Z,8.43
2018-08-09T02:36:23.717Z,7.90
2018-08-09T02:38:52.192Z,9.13
2018-08-09T02:41:20.747Z,7.57
2018-08-09T02:43:49.257Z,9.00
2018-08-09T02:46:17.741Z,10.20
2018-08-09T02:48:46.242Z,9.27
2018-08-09T02:51:14.770Z,7.57
2018-08-09T02:53:43.335Z,8.17
2018-08-09T02:56:11.818Z,8.67
2018-08-09T02:58:40.313Z,7.37
2018-08-09T03:01:08.962Z,9.43
2018-08-09T03:03:37.492Z,9.50
2018-08-09T03:06:06.099Z,10.30
2018-08-09T03:08:34.584Z,11.10
2018-08-09T03:11:03.079Z,13.17
2018-08-09T03:13:31.571Z,13.00
2018-08-09T03:16:00.039Z,14.47
2018-08-09T03:18:28.510Z,10.90
2018-08-09T03:20:57.789Z,12.57
2018-08-09T03:23:26.263Z,13.33
2018-08-09T03:25:54.890Z,13.03
2018-08-09T03:28:23.378Z,15.07
2018-08-09T03:30:51.837Z,17.80
2018-08-09T03:33:20.356Z,10.60
2018-08-09T03:35:48.862Z,11.53
2018-08-09T03:38:17.390Z,13.63
2018-08-09T03:40:45.940Z,12.90
2018-08-09T03:43:14.462Z,20.13
2018-08-09T03:45:42.986Z,16.73
2018-08-09T03:48:11.485Z,23.90
2018-08-09T03:50:39.997Z,34.30
2018-08-09T03:53:08.502Z,47.07
2018-08-09T03:55:37.055Z,35.13
2018-08-09T03:58:05.616Z,24.90
2018-08-09T04:00:34.213Z,36.83
2018-08-09T04:03:02.698Z,44.30
2018-08-09T04:05:31.207Z,40.63
2018-08-09T04:07:59.699Z,34.93
2018-08-09T04:10:28.276Z,35.80
2018-08-09T04:12:56.803Z,42.23
2018-08-09T04:15:25.348Z,33.03
2018-08-09T04:17:53.921Z,29.10
2018-08-09T04:20:22.392Z,30.07
2018-08-09T04:22:50.920Z,31.27
2018-08-09T04:25:19.424Z,32.70
2018-08-09T04:27:48.038Z,24.47
2018-08-09T04:30:16.597Z,28.53
2018-08-09T04:32:45.115Z,30.40
2018-08-09T04:35:13.635Z,30.10
2018-08-09T04:37:42.163Z,23.37
2018-08-09T04:40:10.712Z,26.73
2018-08-09T04:42:39.206Z,27.53
2018-08-09T04:45:08.548Z,21.23
2018-08-09T04:47:37.039Z,21.70
2018-08-09T04:50:06.411Z,24.73
2018-08-09T04:52:34.911Z,25.43
2018-08-09T04:55:03.413Z,27.57
2018-08-09T04:57:31.941Z,26.90
2018-08-09T05:00:00.505Z,29.90
2018-08-09T05:02:29.246Z,20.07
2018-08-09T05:04:57.767Z,20.10
2018-08-09T05:07:26.271Z,20.63
2018-08-09T05:09:54.775Z,21.70
2018-08-09T05:12:23.263Z,20.03
2018-08-09T05:14:51.796Z,19.50
2018-08-09T05:17:20.309Z,22.40
2018-08-09T05:19:48.861Z,19.37
2018-08-09T05:22:21.533Z,20.70
2018-08-09T05:24:50.036Z,17.83
2018-08-09T05:27:18.565Z,16.00
2018-08-09T05:29:47.174Z,22.10
2018-08-09T05:32:15.661Z,20.77
2018-08-09T05:34:44.166Z,17.23
2018-08-09T05:37:12.654Z,14.87
2018-08-09T05:39:41.137Z,16.03
2018-08-09T05:42:09.667Z,19.37
2018-08-09T05:44:38.189Z,19.90
2018-08-09T05:47:06.686Z,14.87
2018-08-09T05:49:35.190Z,13.47
2018-08-09T05:52:03.713Z,18.80
2018-08-09T05:54:32.201Z,14.10
2018-08-09T05:57:00.783Z,19.57
2018-08-09T05:59:29.287Z,14.97
2018-08-09T06:01:57.843Z,15.67
2018-08-09T06:04:26.346Z,14.10
2018-08-09T06:06:54.882Z,13.70
2018-08-09T06:09:23.434Z,18.33
2018-08-09T06:11:51.947Z,15.80
2018-08-09T06:14:20.440Z,17.00
2018-08-09T06:16:48.990Z,14.73
2018-08-09T06:19:17.559Z,15.20
2018-08-09T06:21:46.131Z,13.90
2018-08-09T06:24:14.630Z,15.13
2018-08-09T06:26:43.218Z,18.03
2018-08-09T06:29:11.678Z,13.80
2018-08-09T06:31:40.178Z,14.53
2018-08-09T06:34:08.665Z,15.47
2018-08-09T06:36:37.211Z,15.00
2018-08-09T06:39:08.098Z,12.53
2018-08-09T06:41:37.016Z,18.40
2018-08-09T06:44:05.595Z,13.43
2018-08-09T06:46:34.098Z,14.50
2018-08-09T06:49:02.585Z,15.03
2018-08-09T06:51:31.091Z,15.50
2018-08-09T06:53:59.577Z,13.53
2018-08-09T06:56:28.085Z,15.03
2018-08-09T06:58:56.635Z,13.67
2018-08-09T07:01:25.163Z,17.30
2018-08-09T07:03:53.693Z,14.07
2018-08-09T07:06:22.294Z,15.97
2018-08-09T07:08:50.809Z,16.33
2018-08-09T07:11:19.303Z,17.97
2018-08-09T07:13:47.898Z,16.17
2018-08-09T07:16:16.418Z,15.57
2018-08-09T07:18:45.000Z,13.97
2018-08-09T07:21:13.490Z,16.73
2018-08-09T07:23:42.051Z,11.93
2018-08-09T07:26:10.562Z,13.67
2018-08-09T07:28:39.053Z,11.73
2018-08-09T07:31:07.563Z,13.53
2018-08-09T07:33:36.107Z,14.43
2018-08-09T07:36:04.636Z,17.67
2018-08-09T07:38:33.121Z,13.57
2018-08-09T07:41:01.638Z,17.77
2018-08-09T07:43:30.153Z,15.87
2018-08-09T07:45:58.652Z,13.60
2018-08-09T07:48:27.185Z,12.43
2018-08-09T07:50:55.670Z,13.20
2018-08-09T07:53:24.146Z,12.10
2018-08-09T07:55:52.663Z,10.77
2018-08-09T07:58:21.164Z,11.10
2018-08-09T08:00:49.699Z,14.37
2018-08-09T08:03:18.299Z,12.33
2018-08-09T08:05:46.884Z,14.77
2018-08-09T08:08:15.356Z,13.77
2018-08-09T08:10:43.938Z,12.80
2018-08-09T08:13:12.423Z,13.97
2018-08-09T08:15:40.964Z,13.17
2018-08-09T08:18:09.567Z,10.70
2018-08-09T08:20:38.111Z,11.77
2018-08-09T08:23:05.601Z,13.33
2018-08-09T08:25:34.151Z,14.87
2018-08-09T08:28:03.116Z,13.13
2018-08-09T08:30:31.626Z,12.13
2018-08-09T08:33:00.149Z,12.93
2018-08-09T08:35:28.693Z,10.87
2018-08-09T08:37:57.175Z,12.00
2018-08-09T08:40:25.662Z,14.20
2018-08-09T08:42:54.163Z,13.77
2018-08-09T08:45:22.646Z,11.90
2018-08-09T08:47:51.122Z,12.07
2018-08-09T08:50:19.634Z,14.50
2018-08-09T08:52:48.174Z,12.70
2018-08-09T08:55:16.850Z,15.50
2018-08-09T08:57:45.409Z,16.60
2018-08-09T09:00:14.328Z,17.80
2018-08-09T09:02:42.887Z,16.73
2018-08-09T09:05:12.918Z,13.00
2018-08-09T09:07:41.470Z,16.53
2018-08-09T09:10:18.447Z,18.20
2018-08-09T09:12:47.146Z,12.80
2018-08-09T09:15:16.611Z,15.37
2018-08-09T09:17:45.606Z,15.97
2018-08-09T09:20:17.445Z,11.70
2018-08-09T09:22:46.596Z,17.87
2018-08-09T09:25:15.291Z,14.27
2018-08-09T09:27:43.965Z,14.10
2018-08-09T09:30:14.163Z,13.50
2018-08-09T09:32:42.706Z,10.77
2018-08-09T09:35:11.185Z,10.37
2018-08-09T09:37:40.436Z,9.77
2018-08-09T09:40:09.711Z,13.13
2018-08-09T09:42:39.095Z,11.43
2018-08-09T09:45:08.975Z,14.50
2018-08-09T09:47:37.839Z,10.33
2018-08-09T09:50:07.876Z,14.77
2018-08-09T09:52:36.427Z,12.60
2018-08-09T09:55:05.764Z,12.73
2018-08-09T09:57:34.318Z,10.80
2018-08-09T10:00:03.439Z,10.57
2018-08-09T10:02:32.488Z,14.80
2018-08-09T10:05:01.433Z,12.27
2018-08-09T10:07:30.227Z,14.10
2018-08-09T10:09:58.727Z,11.10
2018-08-09T10:12:27.490Z,13.23
2018-08-09T10:14:56.458Z,12.80
2018-08-09T10:17:25.385Z,13.53
2018-08-09T10:19:54.122Z,11.33
2018-08-09T10:22:22.919Z,9.40
2018-08-09T10:24:51.494Z,12.53
2018-08-09T10:27:20.127Z,11.60
2018-08-09T10:29:48.660Z,11.33
2018-08-09T10:32:17.195Z,9.30
2018-08-09T10:34:46.071Z,12.33
2018-08-09T10:37:14.862Z,11.40
2018-08-09T10:39:43.779Z,12.30
2018-08-09T10:42:12.454Z,10.17
2018-08-09T10:44:41.224Z,11.83
2018-08-09T10:47:09.894Z,9.97
2018-08-09T10:49:38.697Z,10.37
2018-08-09T10:52:07.345Z,9.90
2018-08-09T10:54:36.174Z,10.13
2018-08-09T10:57:05.067Z,13.77
2018-08-09T10:59:33.952Z,10.37
2018-08-09T11:02:02.663Z,10.03
2018-08-09T11:04:31.459Z,12.80
2018-08-09T11:07:00.174Z,9.73
2018-08-09T11:09:28.900Z,9.57
2018-08-09T11:11:57.578Z,11.00
2018-08-09T11:14:26.302Z,11.43
2018-08-09T11:16:55.349Z,13.03
2018-08-09T11:19:24.010Z,13.10
2018-08-09T11:21:52.842Z,13.27
2018-08-09T11:24:21.732Z,9.60
2018-08-09T11:26:50.899Z,11.90
2018-08-09T11:29:19.882Z,10.20
2018-08-09T11:31:48.748Z,11.60
2018-08-09T11:34:17.421Z,10.57
2018-08-09T11:36:46.246Z,9.40
2018-08-09T11:39:16.059Z,9.60
2018-08-09T11:41:44.787Z,9.17
2018-08-09T11:44:14.188Z,9.77
2018-08-09T11:46:43.459Z,11.37
2018-08-09T11:49:12.042Z,9.10
2018-08-09T11:51:40.535Z,10.37
2018-08-09T11:54:09.677Z,9.10
2018-08-09T11:56:38.360Z,11.93
2018-08-09T11:59:06.871Z,9.70
2018-08-09T12:01:35.529Z,9.57
2018-08-09T12:04:04.010Z,9.50
2018-08-09T12:06:32.574Z,10.93
2018-08-09T12:09:01.117Z,10.20
2018-08-09T12:11:29.781Z,8.57
2018-08-09T12:13:58.517Z,8.63
2018-08-09T12:16:27.203Z,11.57
2018-08-09T12:18:55.991Z,9.70
2018-08-09T12:21:24.511Z,8.70
2018-08-09T12:23:53.025Z,10.80
2018-08-09T12:26:21.514Z,9.53
2018-08-09T12:28:50.594Z,10.10
2018-08-09T12:31:19.062Z,9.23
2018-08-09T12:33:47.640Z,8.70
2018-08-09T12:36:16.754Z,8.43
2018-08-09T12:38:45.247Z,8.83
2018-08-09T12:41:13.715Z,9.13
2018-08-09T12:43:42.205Z,10.13
2018-08-09T12:46:10.727Z,8.33
2018-08-09T12:48:39.213Z,10.87
2018-08-09T12:51:07.950Z,11.90
2018-08-09T12:53:36.503Z,8.90
2018-08-09T12:56:05.051Z,13.40
2018-08-09T12:58:33.557Z,9.93
2018-08-09T13:01:02.048Z,19.87
2018-08-09T13:03:30.607Z,14.03
2018-08-09T13:05:59.091Z,11.60
2018-08-09T13:08:27.881Z,11.80
2018-08-09T13:10:56.444Z,8.63
2018-08-09T13:13:24.970Z,12.17
2018-08-09T13:15:53.442Z,14.23
2018-08-09T13:18:21.941Z,11.57
2018-08-09T13:20:50.787Z,16.00
2018-08-09T13:23:19.539Z,13.77
2018-08-09T13:25:48.329Z,12.47
2018-08-09T13:28:16.923Z,13.43
2018-08-09T13:30:45.729Z,11.53
2018-08-09T13:33:14.311Z,11.17
2018-08-09T13:35:43.144Z,17.87
2018-08-09T13:38:11.995Z,9.17
2018-08-09T13:40:40.847Z,17.23
2018-08-09T13:43:09.558Z,11.07
2018-08-09T13:45:38.239Z,9.23
2018-08-09T13:48:07.538Z,9.43
2018-08-09T13:50:36.150Z,9.50
2018-08-09T13:53:04.747Z,19.10
2018-08-09T13:55:33.248Z,9.00
2018-08-09T13:58:01.757Z,9.60
2018-08-09T14:00:30.235Z,11.00
2018-08-09T14:02:58.718Z,7.73
2018-08-09T14:05:27.347Z,8.67
2018-08-09T14:07:55.847Z,9.47
2018-08-09T14:10:24.350Z,12.27
2018-08-09T14:12:52.848Z,10.67
2018-08-09T14:15:21.330Z,12.37
2018-08-09T14:17:49.877Z,11.10
2018-08-09T14:20:18.899Z,10.60
2018-08-09T14:22:47.382Z,8.87
2018-08-09T14:25:15.885Z,9.37
2018-08-09T14:27:44.389Z,12.93
2018-08-09T14:30:15.015Z,9.87
2018-08-09T14:32:44.171Z,10.33
2018-08-09T14:35:15.142Z,9.97
2018-08-09T14:37:44.611Z,10.20
2018-08-09T14:40:14.158Z,10.53
2018-08-09T14:42:42.691Z,11.87
2018-08-09T14:45:13.608Z,10.70
2018-08-09T14:47:42.128Z,9.93
2018-08-09T14:50:10.610Z,10.27
2018-08-09T14:52:39.096Z,11.07
2018-08-09T14:55:09.458Z,8.57
2018-08-09T14:57:37.986Z,8.57
2018-08-09T15:00:12.637Z,15.13
2018-08-09T15:02:41.139Z,8.10
2018-08-09T15:05:09.638Z,7.70
2018-08-09T15:07:38.172Z,12.03
2018-08-09T15:10:06.836Z,11.27
2018-08-09T15:12:35.326Z,8.97
2018-08-09T15:15:04.143Z,11.23
2018-08-09T15:17:32.661Z,14.70
2018-08-09T15:20:01.180Z,11.13
2018-08-09T15:22:29.728Z,8.07
2018-08-09T15:24:58.181Z,9.57
2018-08-09T15:27:26.680Z,13.00
2018-08-09T15:29:55.189Z,8.53
2018-08-09T15:32:23.675Z,10.50
2018-08-09T15:34:52.167Z,8.57
2018-08-09T15:37:21.145Z,8.50
2018-08-09T15:39:49.618Z,7.70
2018-08-09T15:42:18.143Z,8.33
2018-08-09T15:44:46.698Z,9.67
2018-08-09T15:47:15.248Z,9.83
2018-08-09T15:49:43.711Z,11.17
2018-08-09T15:52:12.233Z,8.20
2018-08-09T15:54:40.731Z,9.90
2018-08-09T15:57:09.320Z,9.30
2018-08-09T15:59:37.808Z,7.67
2018-08-09T16:02:06.296Z,7.43
2018-08-09T16:04:34.790Z,8.03
2018-08-09T16:07:03.289Z,7.93
2018-08-09T16:09:31.778Z,12.20
2018-08-09T16:12:00.283Z,9.60
2018-08-09T16:14:28.787Z,7.90
2018-08-09T16:16:58.012Z,8.10
2018-08-09T16:19:26.801Z,8.13
2018-08-09T16:22:05.828Z,8.27
2018-08-09T16:24:34.655Z,7.90
2018-08-09T16:27:03.540Z,8.30
2018-08-09T16:29:32.744Z,8.93
2018-08-09T16:32:01.236Z,9.83
2018-08-09T16:34:30.328Z,11.17
2018-08-09T16:36:58.804Z,8.40
2018-08-09T16:39:27.304Z,10.20
2018-08-09T16:41:55.820Z,12.03
2018-08-09T16:44:24.351Z,12.77
2018-08-09T16:46:52.833Z,7.73
2018-08-09T16:49:21.371Z,10.60
2018-08-09T16:51:49.878Z,10.30
2018-08-09T16:55:42.725Z,17.33
2018-08-09T16:58:11.255Z,15.43
2018-08-09T17:00:39.742Z,19.10
2018-08-09T17:03:08.289Z,15.00
2018-08-09T17:05:36.782Z,35.63
2018-08-09T17:08:05.311Z,73.50
2018-08-09T17:10:33.822Z,63.77
2018-08-09T17:13:02.318Z,56.73
2018-08-09T17:15:30.818Z,60.97
2018-08-09T17:17:59.795Z,65.63
2018-08-09T17:20:31.492Z,71.23
2018-08-09T17:23:01.040Z,65.67
2018-08-09T17:25:29.604Z,57.53
2018-08-09T17:27:58.187Z,66.67
2018-08-09T17:30:27.798Z,63.80
2018-08-09T17:32:57.441Z,51.77
2018-08-09T17:35:25.922Z,48.40
2018-08-09T17:37:54.989Z,22.90
2018-08-09T17:40:25.920Z,18.93
2018-08-09T17:42:55.291Z,14.23
2018-08-09T17:45:27.506Z,10.40
2018-08-09T17:47:56.057Z,8.40
2018-08-09T17:50:24.582Z,13.97
2018-08-09T17:52:53.701Z,13.07
2018-08-09T17:55:22.665Z,14.33
2018-08-09T17:57:51.212Z,12.23
2018-08-09T18:00:23.406Z,11.13
2018-08-09T18:02:52.330Z,9.97
2018-08-09T18:05:20.840Z,8.90
2018-08-09T18:07:49.401Z,11.33
2018-08-09T18:10:21.337Z,7.83
2018-08-09T18:12:49.814Z,12.37
2018-08-09T18:15:19.030Z,7.53
2018-08-09T18:17:47.858Z,8.83
2018-08-09T18:20:17.980Z,6.60
2018-08-09T18:22:46.667Z,9.33
2018-08-09T18:25:15.929Z,12.40
2018-08-09T18:27:44.513Z,10.33
2018-08-09T18:30:16.259Z,7.43
2018-08-09T18:32:45.068Z,10.10
2018-08-09T18:35:16.801Z,9.37
2018-08-09T18:37:45.427Z,5.73
2018-08-09T18:40:19.485Z,7.63
2018-08-09T18:42:48.130Z,9.73
2018-08-09T18:45:16.953Z,7.20
2018-08-09T18:47:45.414Z,8.10
2018-08-09T18:50:17.278Z,9.17
2018-08-09T18:52:46.000Z,5.47
2018-08-09T18:55:15.577Z,8.00
2018-08-09T18:57:44.059Z,9.80
2018-08-09T19:00:15.042Z,7.33
2018-08-09T19:02:43.933Z,7.83
2018-08-09T19:05:12.452Z,8.27
2018-08-09T19:07:40.980Z,9.83
2018-08-09T19:10:11.677Z,6.60
2018-08-09T19:12:40.358Z,6.00
2018-08-09T19:15:10.446Z,6.70
2018-08-09T19:17:39.219Z,6.63
2018-08-09T19:20:17.746Z,6.20
2018-08-09T19:22:46.431Z,5.57
2018-08-09T19:25:15.368Z,6.00
2018-08-09T19:27:44.112Z,8.13
2018-08-09T19:30:13.797Z,6.93
2018-08-09T19:32:42.358Z,7.37
2018-08-09T19:35:13.805Z,5.50
2018-08-09T19:37:42.475Z,8.43
2018-08-09T19:40:13.083Z,5.80
2018-08-09T19:42:41.793Z,11.00
2018-08-09T19:45:13.330Z,5.80
2018-08-09T19:47:41.810Z,9.83
2018-08-09T19:50:12.625Z,4.07
2018-08-09T19:52:41.229Z,11.80
2018-08-09T19:55:11.580Z,6.00
2018-08-09T19:57:41.503Z,9.60
2018-08-09T20:00:13.064Z,10.60
2018-08-09T20:02:41.647Z,14.53
2018-08-09T20:05:10.982Z,17.73
2018-08-09T20:07:39.878Z,10.93
2018-08-09T20:10:09.691Z,13.50
2018-08-09T20:12:38.216Z,12.00
2018-08-09T20:15:11.669Z,19.87
2018-08-09T20:17:40.355Z,10.80
2018-08-09T20:20:09.858Z,11.90
2018-08-09T20:22:38.374Z,10.53
2018-08-09T20:25:08.271Z,9.33
2018-08-09T20:27:36.783Z,11.93
2018-08-09T20:30:08.070Z,11.37
2018-08-09T20:32:36.592Z,11.87
2018-08-09T20:35:07.897Z,7.77
2018-08-09T20:37:36.451Z,11.57
2018-08-09T20:40:06.751Z,7.73
2018-08-09T20:42:35.489Z,7.60
2018-08-09T20:45:04.946Z,17.47
2018-08-09T20:47:33.627Z,11.87
2018-08-09T20:50:02.292Z,12.43
2018-08-09T20:52:30.907Z,12.70
2018-08-09T20:54:59.424Z,11.97
2018-08-09T20:57:28.093Z,9.73
2018-08-09T20:59:56.590Z,10.30
2018-08-09T21:02:25.111Z,10.80
2018-08-09T21:04:53.656Z,10.87
2018-08-09T21:07:22.183Z,13.17
2018-08-09T21:09:50.729Z,8.33
2018-08-09T21:12:19.749Z,7.40
2018-08-09T21:14:48.368Z,7.27
2018-08-09T21:17:17.180Z,8.80
2018-08-09T21:19:45.776Z,9.17
2018-08-09T21:22:14.303Z,10.97
2018-08-09T21:24:42.877Z,9.03
2018-08-09T21:27:11.447Z,7.57
2018-08-09T21:29:40.007Z,9.00
2018-08-09T21:32:08.601Z,12.17
2018-08-09T21:34:37.114Z,10.73
2018-08-09T21:37:05.632Z,8.17
2018-08-09T21:39:34.102Z,6.73
2018-08-09T21:42:02.592Z,11.77
2018-08-09T21:44:31.071Z,6.10
2018-08-09T21:46:59.552Z,11.13
2018-08-09T21:49:28.060Z,7.33
2018-08-09T21:51:56.573Z,8.40
2018-08-09T21:54:25.058Z,6.03
2018-08-09T21:56:53.525Z,9.27
2018-08-09T21:59:22.091Z,8.43
2018-08-09T22:01:50.571Z,6.93
2018-08-09T22:04:20.293Z,9.47
2018-08-09T22:06:53.934Z,8.17
2018-08-09T22:09:27.491Z,9.30
2018-08-09T22:12:01.234Z,7.33
2018-08-09T22:14:35.033Z,7.60
2018-08-09T22:17:08.834Z,9.43
2018-08-09T22:19:42.718Z,6.87
2018-08-09T22:22:13.286Z,7.03
2018-08-09T22:24:41.847Z,7.93
2018-08-09T22:27:11.022Z,6.90
2018-08-09T22:29:39.504Z,7.73
2018-08-09T22:32:08.018Z,6.83
2018-08-09T22:34:36.525Z,5.63
2018-08-09T22:37:05.063Z,5.50
2018-08-09T22:39:33.549Z,5.43
2018-08-09T22:42:02.051Z,9.00
2018-08-09T22:44:30.555Z,5.13
2018-08-09T22:46:59.110Z,5.63
2018-08-09T22:49:27.639Z,6.10
2018-08-09T22:51:56.144Z,8.13
2018-08-09T22:54:24.973Z,6.17
2018-08-09T22:56:53.481Z,6.53
2018-08-09T22:59:21.964Z,7.93
2018-08-09T23:01:50.557Z,5.93
2018-08-09T23:04:19.098Z,7.50
2018-08-09T23:06:48.188Z,7.37
2018-08-09T23:09:16.701Z,7.13
2018-08-09T23:11:45.194Z,7.00
2018-08-09T23:14:13.705Z,10.60
2018-08-09T23:16:42.214Z,5.33
2018-08-09T23:19:10.698Z,7.47
2018-08-09T23:21:39.213Z,4.70
2018-08-09T23:24:07.705Z,8.77
2018-08-09T23:26:36.198Z,5.00
2018-08-09T23:29:04.723Z,6.47
2018-08-09T23:31:33.194Z,8.17
2018-08-09T23:34:01.782Z,5.93
2018-08-09T23:36:30.762Z,6.30
2018-08-09T23:38:59.244Z,4.80
2018-08-09T23:41:27.726Z,4.53
2018-08-09T23:43:56.227Z,8.93
2018-08-09T23:46:24.710Z,7.47
2018-08-09T23:48:53.254Z,6.77
2018-08-09T23:51:21.768Z,6.33
2018-08-09T23:53:50.222Z,6.87
2018-08-09T23:56:19.027Z,6.40
2018-08-09T23:58:47.535Z,6.43
